sensor_id;sensor_type;location;lat;lon;timestamp;P1;durP1;ratioP1;P2;durP2;ratioP2
82926;SDS011;72788;40.218;44.486;2024-02-15T00:00:09;21.83;;;12.18;;
82926;SDS011;72788;40.218;44.486;2024-02-15T00:02:36;23.67;;;13.13;;
82926;SDS011;72788;40.218;44.486;2024-02-15T00:05:02;27.05;;;14.40;;
82926;SDS011;72788;40.218;44.486;2024-02-15T00:07:27;28.20;;;14.88;;
82926;SDS011;72788;40.218;44.486;2024-02-15T00:09:53;26.20;;;14.80;;
82926;SDS011;72788;40.218;44.486;2024-02-15T00:12:19;25.40;;;14.40;;
82926;SDS011;72788;40.218;44.486;2024-02-15T00:14:45;27.17;;;14.85;;
82926;SDS011;72788;40.218;44.486;2024-02-15T00:17:10;25.77;;;14.93;;
82926;SDS011;72788;40.218;44.486;2024-02-15T00:19:37;28.75;;;14.60;;
82926;SDS011;72788;40.218;44.486;2024-02-15T00:22:05;31.27;;;15.50;;
82926;SDS011;72788;40.218;44.486;2024-02-15T00:24:31;30.85;;;15.68;;
82926;SDS011;72788;40.218;44.486;2024-02-15T00:26:57;32.63;;;16.05;;
82926;SDS011;72788;40.218;44.486;2024-02-15T00:29:22;29.15;;;14.77;;
82926;SDS011;72788;40.218;44.486;2024-02-15T00:31:50;30.58;;;17.02;;
82926;SDS011;72788;40.218;44.486;2024-02-15T00:34:15;30.10;;;16.88;;
82926;SDS011;72788;40.218;44.486;2024-02-15T00:36:42;34.70;;;16.52;;
82926;SDS011;72788;40.218;44.486;2024-02-15T00:39:09;29.67;;;16.83;;
82926;SDS011;72788;40.218;44.486;2024-02-15T00:41:37;33.90;;;18.17;;
82926;SDS011;72788;40.218;44.486;2024-02-15T00:44:07;31.40;;;16.55;;
82926;SDS011;72788;40.218;44.486;2024-02-15T00:46:36;33.78;;;17.88;;
82926;SDS011;72788;40.218;44.486;2024-02-15T00:49:02;29.80;;;16.30;;
82926;SDS011;72788;40.218;44.486;2024-02-15T00:51:29;35.03;;;16.65;;
82926;SDS011;72788;40.218;44.486;2024-02-15T00:53:55;29.38;;;16.48;;
82926;SDS011;72788;40.218;44.486;2024-02-15T00:56:21;34.97;;;17.63;;
82926;SDS011;72788;40.218;44.486;2024-02-15T00:58:47;36.58;;;18.33;;
82926;SDS011;72788;40.218;44.486;2024-02-15T01:01:13;35.10;;;18.40;;
82926;SDS011;72788;40.218;44.486;2024-02-15T01:03:40;31.95;;;17.42;;
82926;SDS011;72788;40.218;44.486;2024-02-15T01:06:05;32.63;;;16.05;;
82926;SDS011;72788;40.218;44.486;2024-02-15T01:08:32;33.60;;;18.17;;
82926;SDS011;72788;40.218;44.486;2024-02-15T01:10:58;34.83;;;17.55;;
82926;SDS011;72788;40.218;44.486;2024-02-15T01:13:24;34.53;;;18.35;;
82926;SDS011;72788;40.218;44.486;2024-02-15T01:15:50;31.90;;;17.60;;
82926;SDS011;72788;40.218;44.486;2024-02-15T01:18:16;32.75;;;17.17;;
82926;SDS011;72788;40.218;44.486;2024-02-15T01:20:41;36.83;;;17.45;;
82926;SDS011;72788;40.218;44.486;2024-02-15T01:23:07;42.50;;;19.52;;
82926;SDS011;72788;40.218;44.486;2024-02-15T01:25:33;34.55;;;16.70;;
82926;SDS011;72788;40.218;44.486;2024-02-15T01:27:59;31.98;;;17.73;;
82926;SDS011;72788;40.218;44.486;2024-02-15T01:30:26;31.90;;;16.15;;
82926;SDS011;72788;40.218;44.486;2024-02-15T01:32:53;34.15;;;17.08;;
82926;SDS011;72788;40.218;44.486;2024-02-15T01:35:19;37.22;;;17.80;;
82926;SDS011;72788;40.218;44.486;2024-02-15T01:37:45;39.85;;;19.75;;
82926;SDS011;72788;40.218;44.486;2024-02-15T01:40:11;37.72;;;18.60;;
82926;SDS011;72788;40.218;44.486;2024-02-15T01:42:40;32.38;;;17.85;;
82926;SDS011;72788;40.218;44.486;2024-02-15T01:45:06;37.03;;;18.67;;
82926;SDS011;72788;40.218;44.486;2024-02-15T01:47:31;33.72;;;18.05;;
82926;SDS011;72788;40.218;44.486;2024-02-15T01:49:57;31.15;;;17.13;;
82926;SDS011;72788;40.218;44.486;2024-02-15T01:52:23;34.95;;;16.50;;
82926;SDS011;72788;40.218;44.486;2024-02-15T01:54:52;26.85;;;14.75;;
82926;SDS011;72788;40.218;44.486;2024-02-15T01:57:19;28.77;;;15.88;;
82926;SDS011;72788;40.218;44.486;2024-02-15T01:59:49;28.02;;;15.77;;
82926;SDS011;72788;40.218;44.486;2024-02-15T02:02:17;26.42;;;14.25;;
82926;SDS011;72788;40.218;44.486;2024-02-15T02:04:46;27.83;;;15.07;;
82926;SDS011;72788;40.218;44.486;2024-02-15T02:07:11;25.15;;;13.60;;
82926;SDS011;72788;40.218;44.486;2024-02-15T02:09:37;29.10;;;14.85;;
82926;SDS011;72788;40.218;44.486;2024-02-15T02:12:03;27.38;;;13.20;;
82926;SDS011;72788;40.218;44.486;2024-02-15T02:14:29;25.73;;;12.77;;
82926;SDS011;72788;40.218;44.486;2024-02-15T02:16:55;24.90;;;12.30;;
82926;SDS011;72788;40.218;44.486;2024-02-15T02:19:21;20.27;;;12.18;;
82926;SDS011;72788;40.218;44.486;2024-02-15T02:21:47;21.80;;;11.13;;
82926;SDS011;72788;40.218;44.486;2024-02-15T02:24:18;16.33;;;8.48;;
82926;SDS011;72788;40.218;44.486;2024-02-15T02:26:47;16.33;;;7.40;;
82926;SDS011;72788;40.218;44.486;2024-02-15T02:29:15;14.48;;;7.97;;
82926;SDS011;72788;40.218;44.486;2024-02-15T02:31:41;17.85;;;8.15;;
82926;SDS011;72788;40.218;44.486;2024-02-15T02:34:07;16.52;;;7.68;;
82926;SDS011;72788;40.218;44.486;2024-02-15T02:36:34;14.15;;;8.02;;
82926;SDS011;72788;40.218;44.486;2024-02-15T02:39:01;16.85;;;7.78;;
82926;SDS011;72788;40.218;44.486;2024-02-15T02:41:27;15.77;;;7.22;;
82926;SDS011;72788;40.218;44.486;2024-02-15T02:43:54;14.30;;;7.28;;
82926;SDS011;72788;40.218;44.486;2024-02-15T02:46:21;12.20;;;7.38;;
82926;SDS011;72788;40.218;44.486;2024-02-15T02:48:47;16.02;;;7.45;;
82926;SDS011;72788;40.218;44.486;2024-02-15T02:51:12;16.42;;;7.97;;
82926;SDS011;72788;40.218;44.486;2024-02-15T02:53:38;16.08;;;8.30;;
82926;SDS011;72788;40.218;44.486;2024-02-15T02:56:04;17.50;;;8.05;;
82926;SDS011;72788;40.218;44.486;2024-02-15T02:58:29;14.27;;;7.38;;
82926;SDS011;72788;40.218;44.486;2024-02-15T03:00:55;14.23;;;8.13;;
82926;SDS011;72788;40.218;44.486;2024-02-15T03:03:23;18.52;;;8.00;;
82926;SDS011;72788;40.218;44.486;2024-02-15T03:05:49;15.05;;;7.53;;
82926;SDS011;72788;40.218;44.486;2024-02-15T03:08:14;14.80;;;7.68;;
82926;SDS011;72788;40.218;44.486;2024-02-15T03:10:42;16.17;;;7.85;;
82926;SDS011;72788;40.218;44.486;2024-02-15T03:13:08;15.02;;;7.93;;
82926;SDS011;72788;40.218;44.486;2024-02-15T03:15:37;15.52;;;7.80;;
82926;SDS011;72788;40.218;44.486;2024-02-15T03:18:03;16.45;;;7.47;;
82926;SDS011;72788;40.218;44.486;2024-02-15T03:20:32;13.55;;;7.40;;
82926;SDS011;72788;40.218;44.486;2024-02-15T03:23:01;16.10;;;8.15;;
82926;SDS011;72788;40.218;44.486;2024-02-15T03:25:27;14.55;;;7.78;;
82926;SDS011;72788;40.218;44.486;2024-02-15T03:27:57;15.05;;;8.10;;
82926;SDS011;72788;40.218;44.486;2024-02-15T03:30:24;13.48;;;8.38;;
82926;SDS011;72788;40.218;44.486;2024-02-15T03:32:51;13.57;;;7.75;;
82926;SDS011;72788;40.218;44.486;2024-02-15T03:35:18;13.70;;;7.68;;
82926;SDS011;72788;40.218;44.486;2024-02-15T03:37:44;14.43;;;7.90;;
82926;SDS011;72788;40.218;44.486;2024-02-15T03:40:10;19.40;;;8.45;;
82926;SDS011;72788;40.218;44.486;2024-02-15T03:42:36;17.02;;;9.30;;
82926;SDS011;72788;40.218;44.486;2024-02-15T03:45:05;17.95;;;9.10;;
82926;SDS011;72788;40.218;44.486;2024-02-15T03:47:35;17.65;;;9.27;;
82926;SDS011;72788;40.218;44.486;2024-02-15T03:50:07;15.65;;;8.93;;
82926;SDS011;72788;40.218;44.486;2024-02-15T03:52:35;16.58;;;9.27;;
82926;SDS011;72788;40.218;44.486;2024-02-15T03:55:01;19.73;;;9.95;;
82926;SDS011;72788;40.218;44.486;2024-02-15T03:57:29;17.73;;;9.40;;
82926;SDS011;72788;40.218;44.486;2024-02-15T03:59:55;20.90;;;9.70;;
82926;SDS011;72788;40.218;44.486;2024-02-15T04:02:24;18.38;;;10.07;;
82926;SDS011;72788;40.218;44.486;2024-02-15T04:04:54;18.52;;;10.27;;
82926;SDS011;72788;40.218;44.486;2024-02-15T04:07:20;18.02;;;10.00;;
82926;SDS011;72788;40.218;44.486;2024-02-15T04:09:47;20.48;;;10.45;;
82926;SDS011;72788;40.218;44.486;2024-02-15T04:12:13;18.38;;;9.77;;
82926;SDS011;72788;40.218;44.486;2024-02-15T04:14:48;17.45;;;10.43;;
82926;SDS011;72788;40.218;44.486;2024-02-15T04:17:14;17.52;;;9.02;;
82926;SDS011;72788;40.218;44.486;2024-02-15T04:19:45;15.32;;;8.48;;
82926;SDS011;72788;40.218;44.486;2024-02-15T04:22:15;19.48;;;9.93;;
82926;SDS011;72788;40.218;44.486;2024-02-15T04:24:41;18.38;;;10.25;;
82926;SDS011;72788;40.218;44.486;2024-02-15T04:27:08;15.30;;;9.57;;
82926;SDS011;72788;40.218;44.486;2024-02-15T04:29:37;22.70;;;9.95;;
82926;SDS011;72788;40.218;44.486;2024-02-15T04:32:05;16.92;;;10.13;;
82926;SDS011;72788;40.218;44.486;2024-02-15T04:34:35;18.20;;;10.07;;
82926;SDS011;72788;40.218;44.486;2024-02-15T04:37:02;17.08;;;9.93;;
82926;SDS011;72788;40.218;44.486;2024-02-15T04:39:32;23.77;;;12.57;;
82926;SDS011;72788;40.218;44.486;2024-02-15T04:41:58;25.00;;;12.07;;
82926;SDS011;72788;40.218;44.486;2024-02-15T04:44:24;23.17;;;12.73;;
82926;SDS011;72788;40.218;44.486;2024-02-15T04:46:52;24.88;;;13.38;;
82926;SDS011;72788;40.218;44.486;2024-02-15T04:49:19;27.85;;;14.60;;
82926;SDS011;72788;40.218;44.486;2024-02-15T04:51:45;27.73;;;13.73;;
82926;SDS011;72788;40.218;44.486;2024-02-15T04:54:12;26.92;;;14.55;;
82926;SDS011;72788;40.218;44.486;2024-02-15T04:56:41;26.80;;;13.77;;
82926;SDS011;72788;40.218;44.486;2024-02-15T04:59:08;28.25;;;14.48;;
82926;SDS011;72788;40.218;44.486;2024-02-15T05:01:37;28.50;;;15.13;;
82926;SDS011;72788;40.218;44.486;2024-02-15T05:04:03;32.58;;;15.30;;
82926;SDS011;72788;40.218;44.486;2024-02-15T05:06:32;30.95;;;15.98;;
82926;SDS011;72788;40.218;44.486;2024-02-15T05:08:58;31.40;;;15.02;;
82926;SDS011;72788;40.218;44.486;2024-02-15T05:11:25;26.13;;;13.23;;
82926;SDS011;72788;40.218;44.486;2024-02-15T05:13:51;24.70;;;14.93;;
82926;SDS011;72788;40.218;44.486;2024-02-15T05:16:17;29.60;;;15.55;;
82926;SDS011;72788;40.218;44.486;2024-02-15T05:18:44;28.63;;;13.50;;
82926;SDS011;72788;40.218;44.486;2024-02-15T05:21:10;32.78;;;16.42;;
82926;SDS011;72788;40.218;44.486;2024-02-15T05:23:37;30.85;;;15.30;;
82926;SDS011;72788;40.218;44.486;2024-02-15T05:26:05;26.92;;;13.63;;
82926;SDS011;72788;40.218;44.486;2024-02-15T05:28:31;27.65;;;14.00;;
82926;SDS011;72788;40.218;44.486;2024-02-15T05:31:10;23.60;;;11.65;;
82926;SDS011;72788;40.218;44.486;2024-02-15T05:33:45;22.13;;;11.45;;
82926;SDS011;72788;40.218;44.486;2024-02-15T05:36:14;20.92;;;10.25;;
82926;SDS011;72788;40.218;44.486;2024-02-15T05:38:41;18.50;;;9.93;;
82926;SDS011;72788;40.218;44.486;2024-02-15T05:41:10;23.05;;;10.63;;
82926;SDS011;72788;40.218;44.486;2024-02-15T05:43:36;20.50;;;10.23;;
82926;SDS011;72788;40.218;44.486;2024-02-15T05:46:03;20.85;;;10.30;;
82926;SDS011;72788;40.218;44.486;2024-02-15T05:48:29;21.02;;;9.65;;
82926;SDS011;72788;40.218;44.486;2024-02-15T05:50:56;17.02;;;8.98;;
82926;SDS011;72788;40.218;44.486;2024-02-15T05:53:22;20.80;;;9.68;;
82926;SDS011;72788;40.218;44.486;2024-02-15T05:55:49;25.60;;;10.70;;
82926;SDS011;72788;40.218;44.486;2024-02-15T05:58:15;15.77;;;8.13;;
82926;SDS011;72788;40.218;44.486;2024-02-15T06:00:42;18.95;;;8.88;;
82926;SDS011;72788;40.218;44.486;2024-02-15T06:03:12;16.13;;;9.07;;
82926;SDS011;72788;40.218;44.486;2024-02-15T06:05:38;15.90;;;8.32;;
82926;SDS011;72788;40.218;44.486;2024-02-15T06:08:04;23.38;;;11.10;;
82926;SDS011;72788;40.218;44.486;2024-02-15T06:10:31;19.05;;;10.18;;
82926;SDS011;72788;40.218;44.486;2024-02-15T06:12:56;20.30;;;9.90;;
82926;SDS011;72788;40.218;44.486;2024-02-15T06:15:24;16.65;;;8.23;;
82926;SDS011;72788;40.218;44.486;2024-02-15T06:17:50;15.00;;;8.02;;
82926;SDS011;72788;40.218;44.486;2024-02-15T06:20:16;21.80;;;11.55;;
82926;SDS011;72788;40.218;44.486;2024-02-15T06:22:46;15.15;;;8.23;;
82926;SDS011;72788;40.218;44.486;2024-02-15T06:25:12;16.52;;;8.48;;
82926;SDS011;72788;40.218;44.486;2024-02-15T06:27:40;18.77;;;10.07;;
82926;SDS011;72788;40.218;44.486;2024-02-15T06:30:11;20.17;;;10.70;;
82926;SDS011;72788;40.218;44.486;2024-02-15T06:32:56;16.33;;;8.32;;
82926;SDS011;72788;40.218;44.486;2024-02-15T06:35:41;18.95;;;9.43;;
82926;SDS011;72788;40.218;44.486;2024-02-15T06:38:25;13.98;;;6.53;;
82926;SDS011;72788;40.218;44.486;2024-02-15T06:41:10;12.13;;;6.20;;
82926;SDS011;72788;40.218;44.486;2024-02-15T06:43:36;17.15;;;7.45;;
82926;SDS011;72788;40.218;44.486;2024-02-15T06:46:02;15.75;;;7.75;;
82926;SDS011;72788;40.218;44.486;2024-02-15T06:48:31;13.23;;;7.07;;
82926;SDS011;72788;40.218;44.486;2024-02-15T06:50:57;16.05;;;7.00;;
82926;SDS011;72788;40.218;44.486;2024-02-15T06:53:23;16.30;;;7.40;;
82926;SDS011;72788;40.218;44.486;2024-02-15T06:55:49;13.15;;;7.13;;
82926;SDS011;72788;40.218;44.486;2024-02-15T06:58:18;12.25;;;5.95;;
82926;SDS011;72788;40.218;44.486;2024-02-15T07:00:45;13.32;;;6.10;;
82926;SDS011;72788;40.218;44.486;2024-02-15T07:03:13;28.23;;;11.07;;
82926;SDS011;72788;40.218;44.486;2024-02-15T07:05:39;13.05;;;7.22;;
82926;SDS011;72788;40.218;44.486;2024-02-15T07:08:07;11.93;;;5.60;;
82926;SDS011;72788;40.218;44.486;2024-02-15T07:10:37;15.90;;;6.10;;
82926;SDS011;72788;40.218;44.486;2024-02-15T07:13:04;10.32;;;5.68;;
82926;SDS011;72788;40.218;44.486;2024-02-15T07:15:31;15.77;;;6.10;;
82926;SDS011;72788;40.218;44.486;2024-02-15T07:17:58;13.93;;;6.93;;
82926;SDS011;72788;40.218;44.486;2024-02-15T07:20:24;11.40;;;5.88;;
82926;SDS011;72788;40.218;44.486;2024-02-15T07:22:51;10.02;;;4.53;;
82926;SDS011;72788;40.218;44.486;2024-02-15T07:25:17;9.55;;;4.88;;
82926;SDS011;72788;40.218;44.486;2024-02-15T07:27:43;14.25;;;6.65;;
82926;SDS011;72788;40.218;44.486;2024-02-15T07:30:09;11.40;;;5.53;;
82926;SDS011;72788;40.218;44.486;2024-02-15T07:32:35;16.05;;;5.32;;
82926;SDS011;72788;40.218;44.486;2024-02-15T07:35:01;11.07;;;4.90;;
82926;SDS011;72788;40.218;44.486;2024-02-15T07:37:27;19.48;;;5.15;;
82926;SDS011;72788;40.218;44.486;2024-02-15T07:39:54;10.80;;;4.82;;
82926;SDS011;72788;40.218;44.486;2024-02-15T07:42:20;14.45;;;5.30;;
82926;SDS011;72788;40.218;44.486;2024-02-15T07:44:49;10.43;;;4.80;;
82926;SDS011;72788;40.218;44.486;2024-02-15T07:47:14;8.80;;;4.00;;
82926;SDS011;72788;40.218;44.486;2024-02-15T07:49:41;14.55;;;4.70;;
82926;SDS011;72788;40.218;44.486;2024-02-15T07:52:07;16.75;;;4.57;;
82926;SDS011;72788;40.218;44.486;2024-02-15T07:54:33;12.82;;;4.93;;
82926;SDS011;72788;40.218;44.486;2024-02-15T07:56:59;10.68;;;4.80;;
82926;SDS011;72788;40.218;44.486;2024-02-15T07:59:24;12.35;;;6.57;;
82926;SDS011;72788;40.218;44.486;2024-02-15T08:01:50;12.35;;;4.43;;
82926;SDS011;72788;40.218;44.486;2024-02-15T08:04:16;29.20;;;10.95;;
82926;SDS011;72788;40.218;44.486;2024-02-15T08:06:46;9.65;;;4.97;;
82926;SDS011;72788;40.218;44.486;2024-02-15T08:09:14;13.40;;;4.72;;
82926;SDS011;72788;40.218;44.486;2024-02-15T08:11:43;10.15;;;4.65;;
82926;SDS011;72788;40.218;44.486;2024-02-15T08:14:09;11.90;;;5.38;;
82926;SDS011;72788;40.218;44.486;2024-02-15T08:16:36;13.63;;;5.43;;
82926;SDS011;72788;40.218;44.486;2024-02-15T08:19:05;11.10;;;4.45;;
82926;SDS011;72788;40.218;44.486;2024-02-15T08:21:32;12.07;;;5.50;;
82926;SDS011;72788;40.218;44.486;2024-02-15T08:24:00;11.73;;;4.15;;
82926;SDS011;72788;40.218;44.486;2024-02-15T08:26:32;23.35;;;13.55;;
82926;SDS011;72788;40.218;44.486;2024-02-15T08:28:58;15.88;;;4.57;;
82926;SDS011;72788;40.218;44.486;2024-02-15T08:31:24;14.85;;;5.47;;
82926;SDS011;72788;40.218;44.486;2024-02-15T08:33:49;11.07;;;4.30;;
82926;SDS011;72788;40.218;44.486;2024-02-15T08:36:15;8.63;;;4.30;;
82926;SDS011;72788;40.218;44.486;2024-02-15T08:38:41;9.50;;;4.32;;
82926;SDS011;72788;40.218;44.486;2024-02-15T08:41:07;9.05;;;4.85;;
82926;SDS011;72788;40.218;44.486;2024-02-15T08:43:33;11.55;;;4.68;;
82926;SDS011;72788;40.218;44.486;2024-02-15T08:45:59;11.57;;;5.30;;
82926;SDS011;72788;40.218;44.486;2024-02-15T08:48:26;10.40;;;5.57;;
82926;SDS011;72788;40.218;44.486;2024-02-15T08:50:52;12.27;;;5.72;;
82926;SDS011;72788;40.218;44.486;2024-02-15T08:53:17;13.20;;;5.40;;
82926;SDS011;72788;40.218;44.486;2024-02-15T08:55:47;11.85;;;5.72;;
82926;SDS011;72788;40.218;44.486;2024-02-15T08:58:13;9.65;;;4.78;;
82926;SDS011;72788;40.218;44.486;2024-02-15T09:00:38;9.93;;;4.30;;
82926;SDS011;72788;40.218;44.486;2024-02-15T09:03:09;13.95;;;4.20;;
82926;SDS011;72788;40.218;44.486;2024-02-15T09:05:36;9.57;;;5.03;;
82926;SDS011;72788;40.218;44.486;2024-02-15T09:08:02;12.07;;;7.72;;
82926;SDS011;72788;40.218;44.486;2024-02-15T09:10:29;13.45;;;5.50;;
82926;SDS011;72788;40.218;44.486;2024-02-15T09:12:56;9.90;;;4.78;;
82926;SDS011;72788;40.218;44.486;2024-02-15T09:15:22;9.40;;;5.15;;
82926;SDS011;72788;40.218;44.486;2024-02-15T09:17:48;9.02;;;4.55;;
82926;SDS011;72788;40.218;44.486;2024-02-15T09:20:17;10.80;;;5.85;;
82926;SDS011;72788;40.218;44.486;2024-02-15T09:22:52;15.05;;;5.95;;
82926;SDS011;72788;40.218;44.486;2024-02-15T09:25:19;10.00;;;5.55;;
82926;SDS011;72788;40.218;44.486;2024-02-15T09:27:49;9.00;;;4.70;;
82926;SDS011;72788;40.218;44.486;2024-02-15T09:30:15;9.75;;;5.03;;
82926;SDS011;72788;40.218;44.486;2024-02-15T09:32:42;9.45;;;4.40;;
82926;SDS011;72788;40.218;44.486;2024-02-15T09:35:12;11.45;;;5.72;;
82926;SDS011;72788;40.218;44.486;2024-02-15T09:37:38;12.80;;;5.55;;
82926;SDS011;72788;40.218;44.486;2024-02-15T09:40:12;8.98;;;5.18;;
82926;SDS011;72788;40.218;44.486;2024-02-15T09:42:41;11.15;;;5.80;;
82926;SDS011;72788;40.218;44.486;2024-02-15T09:45:09;10.02;;;6.00;;
82926;SDS011;72788;40.218;44.486;2024-02-15T09:47:38;10.32;;;5.05;;
82926;SDS011;72788;40.218;44.486;2024-02-15T09:50:07;9.68;;;5.25;;
82926;SDS011;72788;40.218;44.486;2024-02-15T09:52:36;10.30;;;5.85;;
82926;SDS011;72788;40.218;44.486;2024-02-15T09:55:04;10.50;;;5.50;;
82926;SDS011;72788;40.218;44.486;2024-02-15T09:57:30;10.07;;;5.07;;
82926;SDS011;72788;40.218;44.486;2024-02-15T10:00:00;9.63;;;3.92;;
82926;SDS011;72788;40.218;44.486;2024-02-15T10:02:28;8.23;;;3.63;;
82926;SDS011;72788;40.218;44.486;2024-02-15T10:04:55;7.97;;;3.70;;
82926;SDS011;72788;40.218;44.486;2024-02-15T10:07:22;8.63;;;3.90;;
82926;SDS011;72788;40.218;44.486;2024-02-15T10:09:49;13.18;;;4.70;;
82926;SDS011;72788;40.218;44.486;2024-02-15T10:12:15;11.13;;;5.13;;
82926;SDS011;72788;40.218;44.486;2024-02-15T10:14:44;14.35;;;4.78;;
82926;SDS011;72788;40.218;44.486;2024-02-15T10:17:15;18.77;;;8.52;;
82926;SDS011;72788;40.218;44.486;2024-02-15T10:19:42;20.98;;;12.57;;
82926;SDS011;72788;40.218;44.486;2024-02-15T10:22:10;9.23;;;4.35;;
82926;SDS011;72788;40.218;44.486;2024-02-15T10:24:37;11.48;;;5.95;;
82926;SDS011;72788;40.218;44.486;2024-02-15T10:27:04;13.40;;;4.55;;
82926;SDS011;72788;40.218;44.486;2024-02-15T10:29:36;10.50;;;5.35;;
82926;SDS011;72788;40.218;44.486;2024-02-15T10:32:02;9.80;;;4.38;;
82926;SDS011;72788;40.218;44.486;2024-02-15T10:34:29;12.27;;;4.50;;
82926;SDS011;72788;40.218;44.486;2024-02-15T10:37:09;8.55;;;3.85;;
82926;SDS011;72788;40.218;44.486;2024-02-15T10:39:37;8.30;;;3.35;;
82926;SDS011;72788;40.218;44.486;2024-02-15T10:42:03;7.78;;;2.22;;
82926;SDS011;72788;40.218;44.486;2024-02-15T10:44:31;6.45;;;2.53;;
82926;SDS011;72788;40.218;44.486;2024-02-15T10:46:59;15.20;;;2.60;;
82926;SDS011;72788;40.218;44.486;2024-02-15T10:49:31;6.05;;;1.77;;
82926;SDS011;72788;40.218;44.486;2024-02-15T10:52:00;9.00;;;2.05;;
82926;SDS011;72788;40.218;44.486;2024-02-15T10:54:35;7.57;;;2.30;;
82926;SDS011;72788;40.218;44.486;2024-02-15T10:57:10;9.18;;;2.22;;
82926;SDS011;72788;40.218;44.486;2024-02-15T10:59:38;8.80;;;2.28;;
82926;SDS011;72788;40.218;44.486;2024-02-15T11:02:27;10.30;;;3.35;;
82926;SDS011;72788;40.218;44.486;2024-02-15T11:05:06;9.55;;;3.35;;
82926;SDS011;72788;40.218;44.486;2024-02-15T11:07:37;11.50;;;3.45;;
82926;SDS011;72788;40.218;44.486;2024-02-15T11:10:04;7.82;;;2.80;;
82926;SDS011;72788;40.218;44.486;2024-02-15T11:12:33;9.95;;;2.42;;
82926;SDS011;72788;40.218;44.486;2024-02-15T11:15:00;6.47;;;1.80;;
82926;SDS011;72788;40.218;44.486;2024-02-15T11:20:07;8.65;;;2.60;;
82926;SDS011;72788;40.218;44.486;2024-02-15T11:22:35;7.75;;;2.28;;
82926;SDS011;72788;40.218;44.486;2024-02-15T11:25:02;17.13;;;2.22;;
82926;SDS011;72788;40.218;44.486;2024-02-15T11:27:37;6.28;;;1.83;;
82926;SDS011;72788;40.218;44.486;2024-02-15T11:30:05;5.85;;;1.83;;
82926;SDS011;72788;40.218;44.486;2024-02-15T11:32:44;6.95;;;2.10;;
82926;SDS011;72788;40.218;44.486;2024-02-15T11:35:25;7.10;;;2.45;;
82926;SDS011;72788;40.218;44.486;2024-02-15T11:40:19;9.18;;;1.70;;
82926;SDS011;72788;40.218;44.486;2024-02-15T11:42:48;13.55;;;2.50;;
82926;SDS011;72788;40.218;44.486;2024-02-15T11:45:20;7.18;;;2.60;;
82926;SDS011;72788;40.218;44.486;2024-02-15T11:47:50;8.50;;;2.15;;
82926;SDS011;72788;40.218;44.486;2024-02-15T11:50:19;9.88;;;2.00;;
82926;SDS011;72788;40.218;44.486;2024-02-15T11:52:46;8.15;;;1.92;;
82926;SDS011;72788;40.218;44.486;2024-02-15T11:55:22;9.18;;;2.85;;
82926;SDS011;72788;40.218;44.486;2024-02-15T12:00:46;7.57;;;2.47;;
82926;SDS011;72788;40.218;44.486;2024-02-15T12:03:30;8.98;;;2.60;;
82926;SDS011;72788;40.218;44.486;2024-02-15T12:06:17;12.88;;;5.45;;
82926;SDS011;72788;40.218;44.486;2024-02-15T12:09:02;42.88;;;5.10;;
82926;SDS011;72788;40.218;44.486;2024-02-15T12:11:46;9.38;;;3.60;;
82926;SDS011;72788;40.218;44.486;2024-02-15T12:14:30;10.40;;;3.83;;
82926;SDS011;72788;40.218;44.486;2024-02-15T12:17:14;13.70;;;3.50;;
82926;SDS011;72788;40.218;44.486;2024-02-15T12:20:02;25.25;;;4.28;;
82926;SDS011;72788;40.218;44.486;2024-02-15T12:22:45;18.00;;;5.57;;
82926;SDS011;72788;40.218;44.486;2024-02-15T12:25:16;10.45;;;3.38;;
82926;SDS011;72788;40.218;44.486;2024-02-15T12:27:46;14.25;;;3.45;;
82926;SDS011;72788;40.218;44.486;2024-02-15T12:30:17;19.23;;;3.15;;
82926;SDS011;72788;40.218;44.486;2024-02-15T12:32:47;13.25;;;3.90;;
82926;SDS011;72788;40.218;44.486;2024-02-15T12:35:17;19.65;;;2.58;;
82926;SDS011;72788;40.218;44.486;2024-02-15T12:37:48;11.30;;;2.53;;
82926;SDS011;72788;40.218;44.486;2024-02-15T12:40:37;9.73;;;2.78;;
82926;SDS011;72788;40.218;44.486;2024-02-15T12:43:09;10.15;;;2.28;;
82926;SDS011;72788;40.218;44.486;2024-02-15T12:45:35;15.50;;;4.07;;
82926;SDS011;72788;40.218;44.486;2024-02-15T12:48:05;12.27;;;3.83;;
82926;SDS011;72788;40.218;44.486;2024-02-15T12:50:32;22.90;;;3.72;;
82926;SDS011;72788;40.218;44.486;2024-02-15T12:52:59;24.63;;;4.13;;
82926;SDS011;72788;40.218;44.486;2024-02-15T12:55:31;12.02;;;4.20;;
82926;SDS011;72788;40.218;44.486;2024-02-15T12:58:01;18.83;;;3.20;;
82926;SDS011;72788;40.218;44.486;2024-02-15T13:00:30;23.85;;;4.15;;
82926;SDS011;72788;40.218;44.486;2024-02-15T13:02:58;16.10;;;5.10;;
82926;SDS011;72788;40.218;44.486;2024-02-15T13:05:25;8.60;;;2.47;;
82926;SDS011;72788;40.218;44.486;2024-02-15T13:07:52;6.72;;;2.60;;
82926;SDS011;72788;40.218;44.486;2024-02-15T13:10:21;11.00;;;3.25;;
82926;SDS011;72788;40.218;44.486;2024-02-15T13:12:47;12.10;;;2.65;;
82926;SDS011;72788;40.218;44.486;2024-02-15T13:15:14;7.35;;;2.10;;
82926;SDS011;72788;40.218;44.486;2024-02-15T13:17:48;7.20;;;2.30;;
82926;SDS011;72788;40.218;44.486;2024-02-15T13:20:16;11.43;;;3.00;;
82926;SDS011;72788;40.218;44.486;2024-02-15T13:22:45;8.70;;;2.80;;
82926;SDS011;72788;40.218;44.486;2024-02-15T13:25:14;10.50;;;3.58;;
82926;SDS011;72788;40.218;44.486;2024-02-15T13:27:42;8.45;;;2.47;;
82926;SDS011;72788;40.218;44.486;2024-02-15T13:30:08;9.52;;;3.05;;
82926;SDS011;72788;40.218;44.486;2024-02-15T13:32:35;10.13;;;2.88;;
82926;SDS011;72788;40.218;44.486;2024-02-15T13:35:03;9.18;;;2.97;;
82926;SDS011;72788;40.218;44.486;2024-02-15T13:37:47;7.88;;;2.65;;
82926;SDS011;72788;40.218;44.486;2024-02-15T13:40:13;8.65;;;3.38;;
82926;SDS011;72788;40.218;44.486;2024-02-15T13:42:43;12.30;;;3.17;;
82926;SDS011;72788;40.218;44.486;2024-02-15T13:45:15;9.93;;;3.10;;
82926;SDS011;72788;40.218;44.486;2024-02-15T13:47:43;16.30;;;6.82;;
82926;SDS011;72788;40.218;44.486;2024-02-15T13:50:11;17.27;;;6.05;;
82926;SDS011;72788;40.218;44.486;2024-02-15T13:52:40;13.90;;;4.05;;
82926;SDS011;72788;40.218;44.486;2024-02-15T13:55:09;15.05;;;5.60;;
82926;SDS011;72788;40.218;44.486;2024-02-15T13:57:42;9.75;;;4.25;;
82926;SDS011;72788;40.218;44.486;2024-02-15T14:00:15;6.90;;;2.42;;
82926;SDS011;72788;40.218;44.486;2024-02-15T14:02:51;9.77;;;3.42;;
82926;SDS011;72788;40.218;44.486;2024-02-15T14:05:19;17.50;;;4.70;;
82926;SDS011;72788;40.218;44.486;2024-02-15T14:07:54;18.35;;;5.45;;
82926;SDS011;72788;40.218;44.486;2024-02-15T14:10:21;17.90;;;6.22;;
82926;SDS011;72788;40.218;44.486;2024-02-15T14:12:48;23.60;;;5.10;;
82926;SDS011;72788;40.218;44.486;2024-02-15T14:15:17;13.15;;;4.65;;
82926;SDS011;72788;40.218;44.486;2024-02-15T14:17:44;13.05;;;4.05;;
82926;SDS011;72788;40.218;44.486;2024-02-15T14:20:10;10.40;;;3.50;;
82926;SDS011;72788;40.218;44.486;2024-02-15T14:22:40;12.50;;;2.90;;
82926;SDS011;72788;40.218;44.486;2024-02-15T14:25:07;10.73;;;3.60;;
82926;SDS011;72788;40.218;44.486;2024-02-15T14:27:33;9.73;;;3.30;;
82926;SDS011;72788;40.218;44.486;2024-02-15T14:29:59;8.55;;;2.75;;
82926;SDS011;72788;40.218;44.486;2024-02-15T14:32:45;9.10;;;3.17;;
82926;SDS011;72788;40.218;44.486;2024-02-15T14:35:28;8.23;;;2.40;;